Latest Weather Observations for Parafield

IDS60901

Issued at 2:31 pm CST Friday 30 September 2016 (issued every 10 minutes, with the page automatically refreshed every 10 minutes)

About weather observations | Map of Adelaide area stations | Latest observations for Adelaide area | Other Formats
Station Details ID: 023013 Name: PARAFIELD AIRPORT Lat: -34.80 Lon: 138.63 Height: 9.5 m
Data from the previous 72 hours. | See also: Recent months at Parafield
Date/Time
CST
Temp
°C
App
Temp
°C
Dew
Point
°C
Rel
Hum
%
Delta-T
°C
Wind Press
QNH
hPa
Press
MSL
hPa
Rain since
9am
mm
Dir  Spd
km/h
Gust
km/h
Spd
kts
Gust
kts
30/02:30pm 14.7 8.1 9.9 73 2.5 WSW 35 48 19 26 1004.5 1004.5 0.2
30/02:00pm 14.4 7.7 9.8 74 2.4 WSW 35 50 19 27 1004.5 1004.5 0.2
30/01:30pm 15.0 8.5 10.2 73 2.5 WSW 35 48 19 26 1004.4 1004.4 0.2
30/01:00pm 14.7 8.9 10.9 78 2.0 WSW 32 43 17 23 1004.5 1004.5 0.2
30/12:45pm 14.4 8.4 10.8 79 1.9 WSW 33 52 18 28 1004.6 1004.6 0.2
30/12:30pm 14.4 7.4 9.8 74 2.4 SW 37 54 20 29 1004.5 1004.5 0.2
30/12:29pm 14.2 7.5 9.6 74 2.4 SW 35 54 19 29 1004.5 1004.5 0.2
30/12:08pm 14.4 5.7 10.0 75 2.3 SW 46 61 25 33 1004.3 1004.3 0.2
30/12:01pm 14.8 7.6 10.4 75 2.3 SW 39 61 21 33 1004.2 1004.2 0.2
30/12:00pm 14.5 7.5 10.1 75 2.3 SW 37 54 20 29 1004.2 1004.2 0.2
30/11:45am 14.8 7.7 11.0 78 2.0 WSW 39 61 21 33 1004.1 1004.1 0.2
30/11:41am 14.4 7.7 11.0 80 1.8 WSW 37 56 20 30 1004.0 1004.0 0.2
30/11:30am 14.4 8.1 11.2 81 1.7 WSW 35 50 19 27 1004.1 1004.1 0.2
30/11:00am 14.6 7.1 11.0 79 1.9 WSW 41 56 22 30 1003.7 1003.7 0.2
30/10:30am 14.3 7.6 10.9 80 1.8 WSW 37 54 20 29 1003.5 1003.5 0.2
30/10:22am 14.2 7.9 11.0 81 1.7 SW 35 48 19 26 1003.5 1003.5 0.2
30/10:00am 13.5 5.6 10.9 84 1.4 SW 43 56 23 30 1003.2 1003.2 0.2
30/09:45am 13.6 7.0 11.3 86 1.2 WSW 37 56 20 30 1003.0 1003.0 0.2
30/09:44am 13.6 7.4 11.3 86 1.2 WSW 35 56 19 30 1003.0 1003.0 0.2
30/09:30am 13.5 7.4 11.6 88 1.0 SW 35 50 19 27 1003.0 1003.0 0.0
30/09:28am 13.5 7.4 11.9 90 0.9 SW 35 50 19 27 1003.0 1003.0 0.0
30/09:05am 12.6 7.3 12.4 99 0.1 WSW 32 50 17 27 1002.6 1002.6 0.0
30/09:00am 12.7 6.7 12.2 97 0.3 WSW 35 50 19 27 1002.5 1002.5 19.8
30/08:43am 12.8 7.3 12.0 95 0.4 WSW 32 52 17 28 1002.2 1002.2 19.8
30/08:30am 12.5 8.7 12.5 100 0.0 WSW 24 35 13 19 1002.1 1002.1 19.8
30/08:28am 12.4 9.0 12.4 100 0.0 WSW 22 35 12 19 1002.1 1002.1 19.8
30/08:01am 12.1 7.5 11.2 94 0.5 WSW 26 39 14 21 1001.9 1001.9 19.6
30/08:00am 12.2 7.6 11.1 93 0.6 WSW 26 39 14 21 1001.9 1001.9 19.4
30/07:30am 12.4 8.0 10.3 87 1.1 WSW 24 37 13 20 1001.6 1001.6 19.4
30/07:00am 12.4 8.0 10.3 87 1.1 WSW 24 35 13 19 1001.2 1001.2 19.4
30/06:30am 12.0 7.9 10.1 88 1.0 WSW 22 30 12 16 1000.8 1000.8 19.4
30/06:08am 11.8 8.1 10.2 90 0.8 WSW 20 28 11 15 1000.3 1000.3 19.4
30/06:00am 11.7 8.2 10.3 91 0.7 WSW 19 30 10 16 1000.2 1000.2 19.4
30/05:51am 11.7 9.0 10.4 92 0.7 WSW 15 22 8 12 1000.1 1000.1 19.4
30/05:30am 11.5 8.0 10.1 91 0.7 WSW 19 26 10 14 1000.0 1000.0 19.4
30/05:00am 11.4 7.2 9.8 90 0.8 WSW 22 30 12 16 999.5 999.5 19.4
30/04:30am 11.1 7.5 10.6 97 0.3 SW 20 30 11 16 999.0 999.0 19.4
30/04:00am 10.7 8.1 10.7 100 0.0 WSW 15 24 8 13 998.7 998.7 19.2
30/03:38am 9.8 9.0 9.7 99 0.1 SSE 4 11 2 6 998.3 998.3 18.6
30/03:30am 9.9 8.6 9.9 100 0.0 SSE 7 11 4 6 998.1 998.1 18.6
30/03:00am 9.9 8.5 9.6 98 0.2 S 7 13 4 7 997.9 997.9 18.6
30/02:58am 9.9 8.1 9.6 98 0.1 SSW 9 13 5 7 997.9 997.9 18.6
30/02:39am 10.0 8.1 9.2 95 0.4 S 9 13 5 7 997.6 997.6 18.6
30/02:30am 9.9 7.9 8.8 93 0.5 SSW 9 11 5 6 997.4 997.4 17.2
30/02:22am 9.8 7.0 8.6 92 0.6 SSW 13 19 7 10 997.4 997.4 17.2
30/02:00am 10.1 6.5 8.4 89 0.8 SW 17 24 9 13 997.0 997.0 17.2
30/01:30am 10.3 6.2 8.7 90 0.8 SSW 20 28 11 15 996.7 996.7 17.2
30/01:00am 10.5 4.7 9.4 93 0.5 SSW 30 44 16 24 995.9 995.9 17.2
30/12:37am 10.8 3.1 8.7 87 1.0 SW 39 57 21 31 995.1 995.1 17.0
30/12:31am 10.9 3.7 9.0 88 0.9 SW 37 57 20 31 994.7 994.7 17.0
30/12:30am 10.9 3.7 9.2 89 0.9 SW 37 52 20 28 994.7 994.7 17.0
30/12:22am 11.3 3.3 10.5 95 0.4 WSW 43 67 23 36 994.2 994.2 17.0
30/12:03am 11.4 4.1 11.4 100 0.0 W 41 59 22 32 994.0 994.0 17.0
30/12:00am 11.3 3.9 11.3 100 0.0 W 41 56 22 30 994.1 994.1 17.0
 
Date/Time
CST
Temp
°C
App
Temp
°C
Dew
Point
°C
Rel
Hum
%
Delta-T
°C
Wind Press
QNH
hPa
Press
MSL
hPa
Rain since
9am
mm
Dir  Spd
km/h
Gust
km/h
Spd
kts
Gust
kts
29/11:41pm 11.1 3.1 11.1 100 0.0 W 44 69 24 37 994.1 994.1 16.8
29/11:36pm 11.1 3.1 11.1 100 0.0 W 44 63 24 34 994.1 994.1 16.8
29/11:30pm 11.0 2.2 11.0 100 0.0 W 48 61 26 33 993.9 993.9 16.8
29/11:11pm 10.9 2.5 10.9 100 0.0 W 46 65 25 35 993.9 993.9 16.8
29/11:03pm 11.0 3.9 11.0 100 0.0 W 39 61 21 33 993.9 993.9 16.6
29/11:00pm 11.0 3.5 11.0 100 0.0 W 41 54 22 29 994.0 994.0 16.4
29/10:57pm 11.1 3.3 11.1 100 0.0 W 43 61 23 33 994.0 994.0 16.4
29/10:30pm 11.1 3.3 11.1 100 0.0 W 43 61 23 33 994.6 994.6 15.6
29/10:29pm 11.1 3.1 11.1 100 0.0 W 44 63 24 34 994.6 994.6 15.4
29/10:04pm 11.0 3.2 11.0 100 0.0 W 43 65 23 35 994.6 994.6 14.6
29/10:00pm 11.0 3.2 11.0 100 0.0 W 43 65 23 35 994.6 994.6 14.4
29/09:32pm 11.2 3.4 11.2 100 0.0 W 43 61 23 33 994.5 994.5 13.0
29/09:30pm 11.2 3.4 11.2 100 0.0 W 43 59 23 32 994.6 994.6 12.8
29/09:00pm 11.1 3.3 11.1 100 0.0 WSW 43 65 23 35 994.5 994.5 11.6
29/08:41pm 11.4 3.5 10.9 97 0.3 WSW 43 61 23 33 994.4 994.4 10.0
29/08:36pm 11.5 3.1 10.9 96 0.3 WSW 46 61 25 33 994.2 994.2 9.8
29/08:30pm 11.7 3.5 10.3 91 0.7 WSW 44 63 24 34 994.1 994.1 9.4
29/08:00pm 11.5 2.6 10.6 94 0.5 W 48 74 26 40 993.8 993.8 9.4
29/07:42pm 11.6 1.9 10.5 93 0.6 WSW 52 76 28 41 993.5 993.5 9.2
29/07:30pm 11.4 3.0 10.9 97 0.3 WSW 46 65 25 35 993.2 993.2 9.2
29/07:23pm 11.4 2.6 11.1 98 0.2 WSW 48 70 26 38 993.0 993.0 9.0
29/07:20pm 11.4 2.9 10.8 96 0.3 WSW 46 70 25 38 993.0 993.0 8.8
29/07:00pm 11.6 2.8 11.0 96 0.3 WSW 48 69 26 37 992.7 992.7 8.6
29/06:32pm 11.8 3.1 11.2 96 0.3 WSW 48 74 26 40 991.8 991.8 8.2
29/06:30pm 11.7 2.9 10.9 95 0.4 WSW 48 74 26 40 991.8 991.8 8.0
29/06:23pm 11.9 3.8 10.8 93 0.6 WSW 44 63 24 34 991.8 991.8 8.0
29/06:20pm 11.9 3.4 10.8 93 0.6 WSW 46 63 25 34 991.7 991.7 8.0
29/06:00pm 11.7 3.4 10.1 90 0.8 WSW 44 65 24 35 991.2 991.2 7.8
29/05:54pm 12.0 3.8 10.4 90 0.8 WSW 44 63 24 34 991.1 991.1 7.8
29/05:49pm 12.0 2.7 10.4 90 0.8 WSW 50 63 27 34 991.0 991.0 7.8
29/05:36pm 11.8 3.1 11.2 96 0.3 WSW 48 67 26 36 990.6 990.6 7.8
29/05:32pm 11.7 2.9 11.1 96 0.3 WSW 48 67 26 36 990.6 990.6 7.8
29/05:30pm 12.0 3.6 11.1 94 0.5 WSW 46 67 25 36 990.6 990.6 7.6
29/05:24pm 12.3 3.9 11.2 93 0.6 WSW 46 69 25 37 990.3 990.3 7.6
29/05:23pm 12.3 3.6 11.2 93 0.6 WSW 48 70 26 38 990.2 990.2 7.4
29/05:02pm 12.2 2.8 11.4 95 0.4 WSW 52 70 28 38 989.5 989.5 7.2
29/05:00pm 12.2 2.8 11.6 96 0.3 WSW 52 70 28 38 989.4 989.4 7.2
29/04:30pm 11.9 2.9 11.6 98 0.2 WSW 50 69 27 37 988.8 988.8 5.8
29/04:27pm 11.9 2.0 11.1 95 0.4 WSW 54 72 29 39 988.6 988.6 5.8
29/04:00pm 12.8 4.2 11.5 92 0.7 WSW 48 69 26 37 987.7 987.7 5.8
29/03:46pm 12.8 4.7 12.2 96 0.3 WSW 46 67 25 36 987.1 987.1 5.8
29/03:45pm 12.9 4.5 12.4 97 0.3 WSW 48 65 26 35 987.1 987.1 5.8
29/03:30pm 12.4 5.0 12.4 100 0.0 WSW 43 67 23 36 986.5 986.5 5.6
29/03:27pm 12.4 6.1 12.4 100 0.0 WSW 37 63 20 34 986.5 986.5 5.6
29/03:14pm 12.7 6.1 12.7 100 0.0 WSW 39 56 21 30 986.2 986.2 4.8
29/03:07pm 12.7 6.5 12.7 100 0.0 W 37 56 20 30 986.0 986.0 4.8
29/03:00pm 12.3 6.4 12.3 100 0.0 W 35 50 19 27 985.9 985.9 4.8
29/02:54pm 12.1 6.5 12.1 100 0.0 W 33 54 18 29 986.0 986.0 4.2
29/02:50pm 12.1 7.4 12.1 100 0.0 W 28 54 15 29 986.1 986.1 4.0
29/02:30pm 10.1 6.7 9.3 95 0.4 W 17 22 9 12 986.6 986.6 2.8
29/02:27pm 10.0 6.2 9.1 94 0.4 W 19 28 10 15 986.6 986.6 2.8
29/02:23pm 10.3 5.6 9.2 93 0.5 W 24 33 13 18 986.8 986.8 2.4
29/02:00pm 12.6 6.4 11.5 93 0.6 W 35 54 19 29 986.6 986.6 1.2
29/01:58pm 12.5 6.2 11.1 91 0.7 W 35 54 19 29 986.6 986.6 1.2
29/01:30pm 14.6 9.7 11.4 81 1.7 W 28 39 15 21 986.3 986.3 0.8
29/01:00pm 14.7 9.0 11.1 79 1.9 W 32 43 17 23 986.3 986.3 0.8
29/12:30pm 13.2 7.4 10.7 85 1.3 W 32 46 17 25 986.6 986.6 0.8
29/12:00pm 14.8 7.7 8.1 64 3.4 WSW 35 44 19 24 986.6 986.6 0.4
29/11:33am 15.1 7.0 8.6 65 3.3 WSW 41 59 22 32 986.2 986.2 0.4
29/11:30am 15.4 7.1 9.5 68 3.1 WSW 43 59 23 32 986.3 986.3 0.4
29/11:00am 14.9 6.6 10.1 73 2.5 WSW 44 67 24 36 985.9 985.9 0.4
29/10:30am 13.1 2.6 8.8 75 2.2 WSW 54 74 29 40 985.1 985.1 0.4
29/10:06am 12.5 2.8 9.0 79 1.8 WSW 50 72 27 39 984.4 984.4 0.4
29/10:00am 12.0 3.7 9.2 83 1.4 WSW 43 61 23 33 984.3 984.3 0.4
29/09:52am 11.1 1.4 9.2 88 0.9 WSW 50 76 27 41 984.1 984.1 0.4
29/09:43am 11.2 2.8 9.6 90 0.8 WSW 44 63 24 34 983.6 983.6 0.4
29/09:39am 11.4 3.1 10.0 91 0.7 WSW 44 61 24 33 983.5 983.5 0.4
29/09:30am 12.0 3.2 9.6 85 1.2 WSW 46 69 25 37 983.2 983.2 0.0
29/09:00am 11.9 2.3 7.8 76 2.0 WSW 48 67 26 36 982.3 982.3 29.8
29/08:34am 11.6 2.9 8.3 80 1.6 WSW 44 70 24 38 981.5 981.5 29.8
29/08:30am 11.6 2.6 8.8 83 1.4 WSW 46 61 25 33 981.3 981.3 29.8
29/08:06am 11.0 3.2 9.9 93 0.6 W 41 59 22 32 980.1 980.1 29.6
29/08:00am 11.1 3.7 9.9 92 0.6 WNW 39 56 21 30 979.9 979.9 29.6
29/07:44am 10.9 3.8 9.5 91 0.7 WNW 37 54 20 29 979.5 979.5 29.4
29/07:31am 11.0 4.3 9.8 92 0.6 WNW 35 54 19 29 979.0 979.0 29.4
29/07:30am 11.0 4.0 9.8 92 0.6 NW 37 54 20 29 979.0 979.0 29.4
29/07:16am 10.6 3.4 10.4 99 0.1 NW 39 54 21 29 978.9 978.9 29.4
29/07:08am 10.0 3.4 10.0 100 0.0 NNW 35 54 19 29 978.9 978.9 29.4
29/07:00am 9.2 1.6 9.2 100 0.0 NNW 39 54 21 29 978.9 978.9 29.2
29/06:55am 9.0 0.6 9.0 100 0.0 NNW 43 69 23 37 979.0 979.0 29.2
29/06:30am 8.0 -0.2 8.0 100 0.0 N 41 67 22 36 979.2 979.2 28.6
29/06:00am 7.9 -0.9 7.9 100 0.0 N 44 65 24 35 980.7 980.7 27.0
29/05:59am 7.9 -0.9 7.9 100 0.0 N 44 65 24 35 980.8 980.8 27.0
29/05:57am 7.9 -0.8 7.9 100 0.0 N 43 65 23 35 980.9 980.9 26.8
29/05:45am 7.9 -0.4 7.8 99 0.0 N 41 61 22 33 981.2 981.2 26.0
29/05:39am 7.9 -0.4 7.6 98 0.1 N 41 61 22 33 981.3 981.3 26.0
29/05:30am 8.0 -0.3 7.7 98 0.1 N 41 57 22 31 981.6 981.6 25.8
29/05:00am 8.2 -0.3 6.8 91 0.6 N 41 61 22 33 982.6 982.6 25.2
29/04:54am 8.1 0.0 6.9 92 0.6 N 39 61 21 33 982.8 982.8 25.2
29/04:30am 8.1 0.0 6.9 92 0.6 N 39 54 21 29 983.8 983.8 25.2
29/04:00am 8.2 -0.4 6.7 90 0.7 N 41 54 22 29 985.0 985.0 25.0
29/03:36am 8.1 -0.1 6.6 90 0.7 N 39 57 21 31 985.6 985.6 25.0
29/03:30am 8.2 0.4 6.7 90 0.7 N 37 56 20 30 985.7 985.7 24.8
29/03:00am 8.6 1.5 6.2 85 1.1 N 33 56 18 30 986.2 986.2 24.6
29/02:49am 8.5 1.6 6.3 86 1.0 N 32 50 17 27 986.4 986.4 24.6
29/02:30am 8.9 1.3 6.0 82 1.3 N 35 48 19 26 987.0 987.0 24.4
29/02:06am 8.7 1.5 5.8 82 1.3 N 33 54 18 29 988.2 988.2 24.4
29/02:00am 8.6 1.6 6.2 85 1.1 N 32 43 17 23 988.3 988.3 24.4
29/01:35am 8.4 1.5 6.5 88 0.9 N 32 56 17 30 989.2 989.2 24.4
29/01:30am 8.4 2.0 6.9 90 0.7 N 30 44 16 24 989.3 989.3 24.4
29/01:00am 8.4 2.3 6.7 89 0.8 N 28 39 15 21 990.4 990.4 23.8
29/12:30am 8.5 1.4 6.6 88 0.9 N 33 46 18 25 991.0 991.0 23.4
29/12:00am 8.9 2.5 7.0 88 0.9 N 30 41 16 22 991.6 991.6 23.2
 
Date/Time
CST
Temp
°C
App
Temp
°C
Dew
Point
°C
Rel
Hum
%
Delta-T
°C
Wind Press
QNH
hPa
Press
MSL
hPa
Rain since
9am
mm
Dir  Spd
km/h
Gust
km/h
Spd
kts
Gust
kts
28/11:30pm 9.5 4.3 7.1 85 1.1 N 24 28 13 15 992.2 992.2 23.0
28/11:00pm 10.5 4.9 7.2 80 1.6 NNW 26 35 14 19 992.3 992.3 23.0
28/10:42pm 10.6 4.8 7.8 83 1.4 NNW 28 46 15 25 992.6 992.6 23.0
28/10:30pm 10.7 4.9 7.9 83 1.4 NNW 28 43 15 23 992.6 992.6 23.0
28/10:00pm 11.2 5.2 8.6 84 1.3 NW 30 44 16 24 992.6 992.6 23.0
28/09:30pm 11.6 6.0 8.8 83 1.4 WNW 28 35 15 19 992.4 992.4 23.0
28/09:00pm 11.3 6.1 8.9 85 1.2 WNW 26 37 14 20 992.2 992.2 23.0
28/08:30pm 10.6 6.4 9.8 95 0.4 WNW 22 28 12 15 992.4 992.4 23.0
28/08:20pm 10.4 6.6 9.9 97 0.3 WNW 20 32 11 17 992.5 992.5 23.0
28/08:13pm 10.5 5.6 10.0 97 0.3 WNW 26 39 14 21 992.6 992.6 23.0
28/08:00pm 10.6 4.7 10.3 98 0.2 NW 32 44 17 24 992.7 992.7 22.8
28/07:45pm 11.1 6.3 10.2 94 0.5 WNW 26 41 14 22 992.8 992.8 20.8
28/07:40pm 11.7 7.3 10.3 91 0.7 WNW 24 35 13 19 992.8 992.8 19.2
28/07:36pm 11.8 6.6 10.2 90 0.8 WNW 28 46 15 25 992.6 992.6 19.2
28/07:30pm 11.7 5.6 9.8 88 1.0 NW 32 46 17 25 992.3 992.3 19.2
28/07:23pm 11.9 6.0 10.6 92 0.7 NW 32 50 17 27 992.4 992.4 19.2
28/07:18pm 11.9 5.9 10.8 93 0.6 NW 33 50 18 27 992.5 992.5 19.2
28/07:00pm 12.6 9.0 11.7 94 0.5 NW 22 32 12 17 992.0 992.0 18.8
28/06:30pm 12.6 7.9 10.8 89 0.9 W 26 37 14 20 991.9 991.9 18.8
28/06:00pm 12.8 7.0 10.9 88 1.0 W 32 48 17 26 991.6 991.6 18.8
28/05:32pm 13.9 9.4 12.6 92 0.7 WNW 28 65 15 35 991.0 991.0 18.8
28/05:30pm 14.5 10.7 13.7 95 0.5 WNW 26 35 14 19 990.8 990.8 18.8
28/05:06pm 14.4 11.5 14.1 98 0.2 NW 22 32 12 17 989.9 989.9 18.8
28/05:00pm 14.6 11.8 14.4 99 0.1 NW 22 33 12 18 989.5 989.5 18.8
28/04:49pm 15.4 9.5 14.8 96 0.3 NNW 39 57 21 31 989.2 989.2 18.6
28/04:47pm 15.6 9.4 14.8 95 0.5 NNW 41 57 22 31 989.3 989.3 18.4
28/04:45pm 16.1 10.2 14.8 92 0.7 N 39 57 21 31 989.3 989.3 17.6
28/04:38pm 16.3 11.5 14.7 90 0.9 NNE 33 54 18 29 988.0 988.0 17.2
28/04:30pm 16.2 11.0 14.6 90 0.9 NNE 35 48 19 26 987.1 987.1 17.2
28/04:25pm 16.2 10.9 14.2 88 1.1 NE 35 48 19 26 986.9 986.9 17.0
28/04:00pm 15.6 12.5 13.3 86 1.3 NE 22 35 12 19 987.5 987.5 15.6
28/03:52pm 15.6 11.7 13.3 86 1.3 NE 26 44 14 24 987.9 987.9 14.8
28/03:30pm 16.6 10.4 12.8 78 2.1 NE 37 48 20 26 987.6 987.6 13.2
28/03:00pm 17.6 10.8 11.9 69 3.2 NE 39 61 21 33 989.5 989.5 13.2
28/02:38pm 17.7 10.4 11.5 67 3.4 NE 41 59 22 32 989.8 989.8 13.2
28/02:30pm 17.7 10.7 12.4 71 3.0 NE 41 56 22 30 990.3 990.3 13.2
28/02:00pm 15.6 8.8 11.8 78 2.1 NE 39 59 21 32 992.3 992.3 13.2
28/01:45pm 14.0 9.2 11.7 86 1.2 NE 28 50 15 27 993.5 993.5 13.2
28/01:30pm 12.7 9.0 11.6 93 0.6 ENE 22 32 12 17 994.7 994.7 13.2
28/01:20pm 12.2 9.8 11.3 94 0.5 ENE 15 24 8 13 995.6 995.6 12.8
28/01:00pm 11.7 8.4 10.9 95 0.4 NE 19 24 10 13 997.4 997.4 12.0
28/12:30pm 11.6 8.0 10.5 93 0.6 NE 20 28 11 15 999.0 999.0 9.2
28/12:00pm 11.8 6.2 10.0 89 0.9 NNE 30 46 16 25 1000.6 1000.6 5.0
28/11:53am 12.0 5.9 9.6 85 1.2 NNE 32 48 17 26 1000.9 1000.9 4.0
28/11:45am 12.4 6.6 9.4 82 1.5 NNE 30 48 16 26 1000.8 1000.8 3.0
28/11:30am 13.1 6.9 9.2 77 2.0 NNE 32 44 17 24 1000.5 1000.5 1.4
28/11:15am 14.5 7.1 8.5 67 3.0 NNE 37 50 20 27 1000.0 1000.0 0.2
28/11:00am 16.6 8.7 6.4 51 5.0 NE 37 56 20 30 998.7 998.7 0.0
28/10:36am 18.1 9.7 5.7 44 6.0 NE 39 61 21 33 999.1 999.1 0.0
28/10:30am 18.2 10.0 6.7 47 5.8 NE 39 52 21 28 999.3 999.3 0.0
28/10:00am 18.9 11.9 6.7 45 6.1 NE 33 50 18 27 1000.6 1000.6 0.0
28/09:55am 19.0 12.0 6.2 43 6.3 NE 32 50 17 27 1001.0 1001.0 0.0
28/09:30am 18.6 11.1 6.1 44 6.2 NE 35 46 19 25 1002.1 1002.1 0.0
28/09:00am 18.5 10.9 6.0 44 6.2 NE 35 54 19 29 1003.3 1003.3 0.0
28/08:51am 18.1 10.9 6.0 45 5.9 NE 33 54 18 29 1003.5 1003.5 0.0
28/08:30am 17.6 10.5 6.2 47 5.6 NE 33 43 18 23 1004.3 1004.3 0.0
28/08:00am 16.8 11.1 6.9 52 4.9 NE 26 33 14 18 1005.1 1005.1 0.0
28/07:30am 15.2 9.5 6.5 56 4.2 NE 26 33 14 18 1005.5 1005.5 0.0
28/07:00am 13.8 8.0 6.2 60 3.6 NE 26 35 14 19 1006.0 1006.0 0.0
28/06:30am 12.7 6.9 6.1 64 3.1 NE 26 33 14 18 1006.5 1006.5 0.0
28/06:00am 11.9 7.3 6.4 69 2.6 NE 20 26 11 14 1007.1 1007.1 0.0
28/05:30am 11.6 7.0 6.7 72 2.3 NE 20 30 11 16 1007.4 1007.4 0.0
28/05:00am 11.3 6.8 6.8 74 2.1 NE 20 26 11 14 1007.6 1007.6 0.0
28/04:30am 11.7 6.8 6.8 72 2.3 NE 22 28 12 15 1008.2 1008.2 0.0
28/04:00am 10.7 6.2 6.3 74 2.1 NE 19 22 10 12 1008.4 1008.4 0.0
28/03:30am 9.8 5.2 5.6 75 1.9 NE 19 20 10 11 1008.7 1008.7 0.0
28/03:00am 9.6 5.0 5.8 77 1.7 NE 19 22 10 12 1009.2 1009.2 0.0
28/02:30am 9.0 4.9 6.1 82 1.3 NE 17 20 9 11 1009.7 1009.7 0.0
28/02:00am 7.5 3.6 5.5 87 0.9 NE 15 15 8 8 1010.4 1010.4 0.0
28/01:30am 7.8 4.9 6.3 90 0.7 NE 11 13 6 7 1011.0 1011.0 0.0
28/01:00am 6.0 4.5 4.8 92 0.5 SE 2 7 1 4 1011.6 1011.6 0.0
28/12:30am 7.7 5.1 6.2 90 0.7 NNE 9 11 5 6 1012.1 1012.1 0.0
28/12:00am 8.0 4.6 6.1 88 0.9 N 13 15 7 8 1012.1 1012.1 0.0
 
Date/Time
CST
Temp
°C
App
Temp
°C
Dew
Point
°C
Rel
Hum
%
Delta-T
°C
Wind Press
QNH
hPa
Press
MSL
hPa
Rain since
9am
mm
Dir  Spd
km/h
Gust
km/h
Spd
kts
Gust
kts
27/11:30pm 8.6 7.0 6.2 85 1.1 NE 4 7 2 4 1012.0 1012.0 0.0
27/11:00pm 7.6 5.9 5.9 89 0.8 ENE 4 7 2 4 1012.3 1012.3 0.0
27/10:30pm 8.6 6.4 6.4 86 1.0 NE 7 11 4 6 1012.8 1012.8 0.0
27/10:00pm 7.6 5.5 5.7 88 0.9 ENE 6 7 3 4 1012.9 1012.9 0.0
27/09:30pm 7.9 5.8 5.7 86 1.0 NE 6 13 3 7 1013.2 1013.2 0.0
27/09:00pm 8.9 6.9 6.3 84 1.2 NNE 6 9 3 5 1013.5 1013.5 0.0
27/08:30pm 9.5 8.8 6.9 84 1.2 CALM 0 0 0 0 1013.6 1013.6 0.0
27/08:00pm 9.7 7.6 6.6 81 1.4 ENE 7 7 4 4 1013.7 1013.7 0.0
27/07:30pm 10.3 8.2 6.8 79 1.6 NE 7 9 4 5 1013.8 1013.8 0.0
27/07:00pm 11.9 11.3 7.2 73 2.3 CALM 0 0 0 0 1013.8 1013.8 0.0
27/06:30pm 12.5 10.7 7.0 69 2.6 WNW 6 7 3 4 1013.9 1013.9 0.0
27/06:00pm 13.7 10.9 6.8 63 3.3 WNW 11 15 6 8 1014.0 1014.0 0.0
27/05:30pm 14.7 11.2 7.0 60 3.8 W 15 20 8 11 1014.0 1014.0 0.0
27/05:00pm 15.4 11.8 6.9 57 4.2 WNW 15 20 8 11 1013.9 1013.9 0.0
27/04:30pm 16.0 12.9 7.2 56 4.4 WNW 13 20 7 11 1014.0 1014.0 0.0
27/04:00pm 16.3 12.8 7.3 55 4.5 W 15 22 8 12 1014.2 1014.2 0.0
27/03:30pm 16.3 12.8 7.3 55 4.5 WNW 15 24 8 13 1014.2 1014.2 0.0
27/03:00pm 16.7 13.3 7.6 55 4.6 NW 15 24 8 13 1014.5 1014.5 0.0

Latest Capital City Observations: Canberra | Sydney | Melbourne | Brisbane | Adelaide | Perth | Hobart | Darwin

Other Formats:

Comma delimited format used in spreadsheet applications
http://www.bom.gov.au/fwo/IDS60901/IDS60901.95677.axf

JavaScript Object Notation format (JSON) in row-major order
http://www.bom.gov.au/fwo/IDS60901/IDS60901.95677.json